createdAt,value
2019-01-19T00:01:53.370Z,21.55
2019-01-19T00:05:10.552Z,19.90
2019-01-19T00:08:17.588Z,20.75
2019-01-19T00:11:02.444Z,22.90
2019-01-19T00:14:21.003Z,19.80
2019-01-19T00:17:32.638Z,21.37
2019-01-19T00:20:44.865Z,20.35
2019-01-19T00:23:53.724Z,18.67
2019-01-19T00:26:46.576Z,19.93
2019-01-19T00:29:35.820Z,19.92
2019-01-19T00:32:28.202Z,21.27
2019-01-19T00:35:26.871Z,19.55
2019-01-19T00:38:41.674Z,21.42
2019-01-19T00:41:45.560Z,21.48
2019-01-19T00:44:24.488Z,20.57
2019-01-19T00:47:16.505Z,20.97
2019-01-19T00:50:08.293Z,19.85
2019-01-19T00:52:47.472Z,22.48
2019-01-19T00:55:33.809Z,20.88
2019-01-19T00:58:10.085Z,22.10
2019-01-19T01:01:12.939Z,21.30
2019-01-19T01:04:00.360Z,22.45
2019-01-19T01:06:51.456Z,20.77
2019-01-19T01:10:13.909Z,21.68
2019-01-19T01:13:33.456Z,20.40
2019-01-19T01:16:38.837Z,22.42
2019-01-19T01:19:41.896Z,21.52
2019-01-19T01:22:28.789Z,21.80
2019-01-19T01:25:30.881Z,20.57
2019-01-19T01:28:29.770Z,23.70
2019-01-19T01:31:26.606Z,20.17
2019-01-19T01:34:31.798Z,22.42
2019-01-19T01:37:29.187Z,21.30
2019-01-19T01:40:13.684Z,21.90
2019-01-19T01:43:23.230Z,20.75
2019-01-19T01:46:13.907Z,21.02
2019-01-19T01:49:08.441Z,23.40
2019-01-19T01:52:14.775Z,21.30
2019-01-19T01:55:09.934Z,21.90
2019-01-19T01:57:53.865Z,20.70
2019-01-19T02:00:42.117Z,22.25
2019-01-19T02:03:35.447Z,21.75
2019-01-19T02:06:56.781Z,21.93
2019-01-19T02:09:48.705Z,23.32
2019-01-19T02:12:40.317Z,22.17
2019-01-19T02:16:02.397Z,21.45
2019-01-19T02:18:54.386Z,23.85
2019-01-19T02:21:48.162Z,23.87
2019-01-19T02:24:42.034Z,23.98
2019-01-19T02:27:37.284Z,21.33
2019-01-19T02:30:36.232Z,24.02
2019-01-19T02:33:31.681Z,29.92
2019-01-19T02:36:16.309Z,25.57
2019-01-19T02:39:32.020Z,23.22
2019-01-19T02:42:21.117Z,23.85
2019-01-19T02:45:29.509Z,22.67
2019-01-19T02:48:22.770Z,23.95
2019-01-19T02:51:19.648Z,26.15
2019-01-19T02:54:31.788Z,23.85
2019-01-19T02:57:42.509Z,24.00
2019-01-19T03:00:34.339Z,24.07
2019-01-19T03:03:27.791Z,25.35
2019-01-19T03:06:36.569Z,24.30
2019-01-19T03:09:35.511Z,21.60
2019-01-19T03:12:48.178Z,23.27
2019-01-19T03:15:43.392Z,24.75
2019-01-19T03:18:46.807Z,23.60
2019-01-19T03:21:45.737Z,20.62
2019-01-19T03:24:58.776Z,21.23
2019-01-19T03:28:18.350Z,22.13
2019-01-19T03:31:35.110Z,22.27
2019-01-19T03:34:38.931Z,22.82
2019-01-19T03:37:46.835Z,21.05
2019-01-19T03:41:02.179Z,20.97
2019-01-19T03:43:52.950Z,19.60
2019-01-19T03:46:48.865Z,20.80
2019-01-19T03:49:43.019Z,19.00
2019-01-19T03:52:56.716Z,19.10
2019-01-19T03:56:01.930Z,19.85
2019-01-19T03:59:04.980Z,19.10
2019-01-19T04:01:43.142Z,18.23
2019-01-19T04:04:40.829Z,17.10
2019-01-19T04:07:21.068Z,16.65
2019-01-19T04:10:14.478Z,18.37
2019-01-19T04:13:42.199Z,17.20
2019-01-19T04:16:38.564Z,17.85
2019-01-19T04:19:31.374Z,16.17
2019-01-19T04:22:09.333Z,17.37
2019-01-19T04:25:19.816Z,15.43
2019-01-19T04:27:48.644Z,15.48
2019-01-19T04:30:18.050Z,16.12
2019-01-19T04:32:47.072Z,15.85
2019-01-19T04:35:16.145Z,15.43
2019-01-19T04:37:45.220Z,16.37
2019-01-19T04:40:14.245Z,15.90
2019-01-19T04:42:45.988Z,14.18
2019-01-19T04:45:15.020Z,15.68
2019-01-19T04:47:43.815Z,16.02
2019-01-19T04:50:12.910Z,16.80
2019-01-19T04:52:41.813Z,13.70
2019-01-19T04:55:10.777Z,15.58
2019-01-19T04:57:39.638Z,16.23
2019-01-19T05:00:13.554Z,16.32
2019-01-19T05:02:42.582Z,15.03
2019-01-19T05:05:11.508Z,16.10
2019-01-19T05:07:40.386Z,14.13
2019-01-19T05:10:09.624Z,15.53
2019-01-19T05:12:38.489Z,15.18
2019-01-19T05:15:10.896Z,14.55
2019-01-19T05:17:39.801Z,14.33
2019-01-19T05:20:09.779Z,14.40
2019-01-19T05:22:38.675Z,13.90
2019-01-19T05:25:08.488Z,13.50
2019-01-19T05:27:37.372Z,14.00
2019-01-19T05:30:09.425Z,14.70
2019-01-19T05:32:39.158Z,14.90
2019-01-19T05:35:08.265Z,16.55
2019-01-19T05:37:37.141Z,14.80
2019-01-19T05:40:07.572Z,15.38
2019-01-19T05:42:36.840Z,13.38
2019-01-19T05:45:07.397Z,15.23
2019-01-19T05:47:36.264Z,15.48
2019-01-19T05:50:08.449Z,16.95
2019-01-19T05:52:37.376Z,14.43
2019-01-19T05:55:07.048Z,13.53
2019-01-19T05:57:35.908Z,13.50
2019-01-19T06:00:07.691Z,14.18
2019-01-19T06:02:36.811Z,14.45
2019-01-19T06:05:05.789Z,14.53
2019-01-19T06:07:34.573Z,14.47
2019-01-19T06:10:03.556Z,13.55
2019-01-19T06:12:32.342Z,16.40
2019-01-19T06:15:01.559Z,13.85
2019-01-19T06:17:30.348Z,14.30
2019-01-19T06:19:59.306Z,14.70
2019-01-19T06:22:28.502Z,14.90
2019-01-19T06:24:57.669Z,15.63
2019-01-19T06:27:26.484Z,14.98
2019-01-19T06:29:55.268Z,16.60
2019-01-19T06:32:24.459Z,16.37
2019-01-19T06:34:53.243Z,15.58
2019-01-19T06:37:22.292Z,16.12
2019-01-19T06:39:51.377Z,15.65
2019-01-19T06:42:20.288Z,16.77
2019-01-19T06:44:49.424Z,15.05
2019-01-19T06:47:18.254Z,14.65
2019-01-19T06:49:47.171Z,15.20
2019-01-19T06:52:16.045Z,14.75
2019-01-19T06:54:45.392Z,15.98
2019-01-19T06:57:14.179Z,15.40
2019-01-19T06:59:42.984Z,15.18
2019-01-19T07:02:12.444Z,16.67
2019-01-19T07:04:41.305Z,15.78
2019-01-19T07:07:10.305Z,15.48
2019-01-19T07:09:39.572Z,17.45
2019-01-19T07:12:08.701Z,17.25
2019-01-19T07:14:37.576Z,17.48
2019-01-19T07:17:06.616Z,17.82
2019-01-19T07:19:35.879Z,17.55
2019-01-19T07:22:05.100Z,16.27
2019-01-19T07:24:34.411Z,17.25
2019-01-19T07:27:03.341Z,17.25
2019-01-19T07:29:32.376Z,15.60
2019-01-19T07:32:01.481Z,15.70
2019-01-19T07:34:30.461Z,17.17
2019-01-19T07:36:59.489Z,17.05
2019-01-19T07:39:28.548Z,16.23
2019-01-19T07:41:57.404Z,16.48
2019-01-19T07:44:26.355Z,15.35
2019-01-19T07:46:56.334Z,17.15
2019-01-19T07:49:25.924Z,16.55
2019-01-19T07:51:54.708Z,17.02
2019-01-19T07:54:23.582Z,16.90
2019-01-19T07:56:55.518Z,17.32
2019-01-19T07:59:24.464Z,18.75
2019-01-19T08:01:53.416Z,15.85
2019-01-19T08:04:22.441Z,15.77
2019-01-19T08:06:52.238Z,16.55
2019-01-19T08:09:21.022Z,19.70
2019-01-19T08:11:49.796Z,16.82
2019-01-19T08:14:18.748Z,17.25
2019-01-19T08:16:47.593Z,14.87
2019-01-19T08:19:16.939Z,14.78
2019-01-19T08:21:46.049Z,16.67
2019-01-19T08:24:14.858Z,16.57
2019-01-19T08:26:44.024Z,14.98
2019-01-19T08:29:12.985Z,17.20
2019-01-19T08:31:41.777Z,16.93
2019-01-19T08:34:10.985Z,15.03
2019-01-19T08:36:40.151Z,14.90
2019-01-19T08:39:09.434Z,16.02
2019-01-19T08:41:38.481Z,16.65
2019-01-19T08:44:08.092Z,15.18
2019-01-19T08:46:36.951Z,15.25
2019-01-19T08:49:06.008Z,17.42
2019-01-19T08:51:35.205Z,15.00
2019-01-19T08:54:04.394Z,15.10
2019-01-19T08:56:33.197Z,17.12
2019-01-19T08:59:02.279Z,15.60
2019-01-19T09:01:31.171Z,14.87
2019-01-19T09:04:00.138Z,16.48
2019-01-19T09:06:29.168Z,16.15
2019-01-19T09:08:58.707Z,17.07
2019-01-19T09:11:27.498Z,16.35
2019-01-19T09:13:57.046Z,15.35
2019-01-19T09:16:26.515Z,15.50
2019-01-19T09:18:55.996Z,15.98
2019-01-19T09:21:24.954Z,16.00
2019-01-19T09:24:06.364Z,15.18
2019-01-19T09:26:35.755Z,15.95
2019-01-19T09:29:05.119Z,15.70
2019-01-19T09:31:34.010Z,15.75
2019-01-19T09:34:02.928Z,16.07
2019-01-19T09:36:32.657Z,15.67
2019-01-19T09:39:02.649Z,15.30
2019-01-19T09:41:31.618Z,18.20
2019-01-19T09:44:00.747Z,16.10
2019-01-19T09:46:29.784Z,17.10
2019-01-19T09:48:58.736Z,17.10
2019-01-19T09:51:27.838Z,15.35
2019-01-19T09:53:56.697Z,16.67
2019-01-19T09:56:25.633Z,16.17
2019-01-19T09:58:54.796Z,16.42
2019-01-19T10:01:24.019Z,16.57
2019-01-19T10:03:53.252Z,16.62
2019-01-19T10:06:22.290Z,15.20
2019-01-19T10:08:51.507Z,15.90
2019-01-19T10:11:20.283Z,15.50
2019-01-19T10:13:49.576Z,15.75
2019-01-19T10:16:18.490Z,17.07
2019-01-19T10:18:47.376Z,15.48
2019-01-19T10:21:16.362Z,14.78
2019-01-19T10:23:45.216Z,14.70
2019-01-19T10:26:14.085Z,14.98
2019-01-19T10:28:44.807Z,13.83
2019-01-19T10:31:14.613Z,14.00
2019-01-19T10:33:44.072Z,13.58
2019-01-19T10:36:13.244Z,13.03
2019-01-19T10:38:42.135Z,12.50
2019-01-19T10:41:11.342Z,10.80
2019-01-19T10:43:40.507Z,10.03
2019-01-19T10:46:09.593Z,10.35
2019-01-19T10:48:38.890Z,9.28
2019-01-19T10:51:08.325Z,9.78
2019-01-19T10:53:37.442Z,9.03
2019-01-19T10:56:06.486Z,8.25
2019-01-19T10:58:35.720Z,8.35
2019-01-19T11:01:04.963Z,8.55
2019-01-19T11:03:33.726Z,9.13
2019-01-19T11:06:02.791Z,8.85
2019-01-19T11:08:32.068Z,8.50
2019-01-19T11:11:00.993Z,8.20
2019-01-19T11:13:30.180Z,8.13
2019-01-19T11:15:59.698Z,8.10
2019-01-19T11:18:28.636Z,8.43
2019-01-19T11:20:57.511Z,8.63
2019-01-19T11:23:26.416Z,8.43
2019-01-19T11:25:55.241Z,8.43
2019-01-19T11:28:24.013Z,9.15
2019-01-19T11:30:53.489Z,9.10
2019-01-19T11:33:22.761Z,9.90
2019-01-19T11:35:51.608Z,10.82
2019-01-19T11:38:20.491Z,10.25
2019-01-19T11:40:49.336Z,10.78
2019-01-19T11:43:18.192Z,10.50
2019-01-19T11:45:47.497Z,10.28
2019-01-19T11:48:16.351Z,10.48
2019-01-19T11:50:45.588Z,10.88
2019-01-19T11:53:14.412Z,13.22
2019-01-19T11:55:43.206Z,10.15
2019-01-19T11:58:12.239Z,10.05
2019-01-19T12:00:41.273Z,9.80
2019-01-19T12:03:11.105Z,9.20
2019-01-19T12:05:40.225Z,9.70
2019-01-19T12:08:19.232Z,10.70
2019-01-19T12:10:42.823Z,10.60
2019-01-19T12:13:12.044Z,10.32
2019-01-19T12:15:40.976Z,10.28
2019-01-19T12:18:10.968Z,10.15
2019-01-19T12:20:45.410Z,11.00
2019-01-19T12:23:14.938Z,11.30
2019-01-19T12:25:44.387Z,10.88
2019-01-19T12:28:13.167Z,11.90
2019-01-19T12:30:42.189Z,10.75
2019-01-19T12:33:11.184Z,11.83
2019-01-19T12:35:40.537Z,11.10
2019-01-19T12:38:09.888Z,12.13
2019-01-19T12:40:38.841Z,11.38
2019-01-19T12:43:14.187Z,11.25
2019-01-19T12:45:52.124Z,11.48
2019-01-19T12:48:22.068Z,10.63
2019-01-19T12:50:51.492Z,10.63
2019-01-19T12:53:20.436Z,11.00
2019-01-19T12:56:08.470Z,9.30
2019-01-19T12:58:56.812Z,8.98
2019-01-19T13:01:25.580Z,9.63
2019-01-19T13:03:54.596Z,9.83
2019-01-19T13:06:43.045Z,10.33
2019-01-19T13:09:16.358Z,11.50
2019-01-19T13:12:09.964Z,10.97
2019-01-19T13:14:47.476Z,9.30
2019-01-19T13:17:40.732Z,9.55
2019-01-19T13:20:23.270Z,9.73
2019-01-19T13:23:22.998Z,9.73
2019-01-19T13:26:19.650Z,8.93
2019-01-19T13:29:35.852Z,8.50
2019-01-19T13:33:00.970Z,7.85
2019-01-19T13:35:46.059Z,8.08
2019-01-19T13:38:50.074Z,8.40
2019-01-19T13:42:15.303Z,7.83
2019-01-19T13:45:25.704Z,7.83
2019-01-19T13:48:34.011Z,9.28
2019-01-19T13:51:27.905Z,8.05
2019-01-19T13:54:37.998Z,7.90
2019-01-19T13:57:41.436Z,7.47
2019-01-19T14:00:40.850Z,7.45
2019-01-19T14:03:46.858Z,6.80
2019-01-19T14:06:44.344Z,6.50
2019-01-19T14:09:33.872Z,6.95
2019-01-19T14:12:31.637Z,7.30
2019-01-19T14:15:22.935Z,7.37
2019-01-19T14:17:59.971Z,7.03
2019-01-19T14:20:57.651Z,6.33
2019-01-19T14:23:36.663Z,6.40
2019-01-19T14:26:55.690Z,6.90
2019-01-19T14:29:40.031Z,7.12
2019-01-19T14:32:43.799Z,6.45
2019-01-19T14:35:27.971Z,6.40
2019-01-19T14:38:35.914Z,6.83
2019-01-19T14:41:30.930Z,6.60
2019-01-19T14:45:08.968Z,7.33
2019-01-19T14:47:56.552Z,6.80
2019-01-19T14:51:12.954Z,7.80
2019-01-19T14:54:12.221Z,8.03
2019-01-19T14:57:40.547Z,7.10
2019-01-19T15:00:42.739Z,7.50
2019-01-19T15:03:44.768Z,7.60
2019-01-19T15:07:10.071Z,7.60
2019-01-19T15:10:05.565Z,8.28
2019-01-19T15:13:20.367Z,7.95
2019-01-19T15:16:32.009Z,6.87
2019-01-19T15:19:36.903Z,8.70
2019-01-19T15:22:35.975Z,7.05
2019-01-19T15:26:00.767Z,7.42
2019-01-19T15:29:13.923Z,8.40
2019-01-19T15:32:00.062Z,7.90
2019-01-19T15:34:54.520Z,7.87
2019-01-19T15:38:02.603Z,7.70
2019-01-19T15:41:11.597Z,6.70
2019-01-19T15:44:24.071Z,7.22
2019-01-19T15:47:16.709Z,7.08
2019-01-19T15:50:20.923Z,6.70
2019-01-19T15:53:18.539Z,6.55
2019-01-19T15:56:02.475Z,7.58
2019-01-19T15:58:56.544Z,7.05
2019-01-19T16:01:54.567Z,7.15
2019-01-19T16:05:00.919Z,6.78
2019-01-19T16:08:01.280Z,6.87
2019-01-19T16:11:09.309Z,8.53
2019-01-19T16:14:16.200Z,7.30
2019-01-19T16:17:33.204Z,7.72
2019-01-19T16:20:30.286Z,7.20
2019-01-19T16:23:27.528Z,8.13
2019-01-19T16:26:33.552Z,8.73
2019-01-19T16:29:28.600Z,9.65
2019-01-19T16:32:38.663Z,10.40
2019-01-19T16:35:27.130Z,10.03
2019-01-19T16:38:26.971Z,10.40
2019-01-19T16:41:33.256Z,10.75
2019-01-19T16:45:10.975Z,10.93
2019-01-19T16:47:52.135Z,9.10
2019-01-19T16:50:48.199Z,9.00
2019-01-19T16:53:43.135Z,8.58
2019-01-19T16:56:37.545Z,8.20
2019-01-19T16:59:27.722Z,7.83
2019-01-19T17:02:38.463Z,8.28
2019-01-19T17:05:54.499Z,7.65
2019-01-19T17:08:42.468Z,8.08
2019-01-19T17:11:29.016Z,7.90
2019-01-19T17:14:29.712Z,8.88
2019-01-19T17:17:33.355Z,8.90
2019-01-19T17:20:39.225Z,10.40
2019-01-19T17:23:43.163Z,10.23
2019-01-19T17:26:57.877Z,10.68
2019-01-19T17:30:00.333Z,10.60
2019-01-19T17:33:22.580Z,14.60
2019-01-19T17:35:59.537Z,14.55
2019-01-19T17:39:01.117Z,15.70
2019-01-19T17:42:05.535Z,13.90
2019-01-19T17:45:04.097Z,15.32
2019-01-19T17:48:00.884Z,17.35
2019-01-19T17:51:16.689Z,10.10
2019-01-19T17:54:09.469Z,10.53
2019-01-19T17:56:47.733Z,12.05
2019-01-19T17:59:53.594Z,12.70
2019-01-19T18:02:46.749Z,14.33
2019-01-19T18:05:51.976Z,18.03
2019-01-19T18:08:52.666Z,18.85
2019-01-19T18:11:57.752Z,16.67
2019-01-19T18:14:58.556Z,14.73
2019-01-19T18:17:53.856Z,14.93
2019-01-19T18:21:03.967Z,19.32
2019-01-19T18:24:25.963Z,20.23
2019-01-19T18:27:41.249Z,27.63
2019-01-19T18:30:30.204Z,24.25
2019-01-19T18:33:29.777Z,24.75
2019-01-19T18:37:21.938Z,23.65
2019-01-19T18:40:27.687Z,24.32
2019-01-19T18:43:47.536Z,23.07
2019-01-19T18:46:49.488Z,19.35
2019-01-19T18:49:56.140Z,20.30
2019-01-19T18:52:58.514Z,19.48
2019-01-19T18:55:56.037Z,33.33
2019-01-19T18:59:00.024Z,23.32
2019-01-19T19:02:07.099Z,19.05
2019-01-19T19:05:05.875Z,18.52
2019-01-19T19:08:06.960Z,22.40
2019-01-19T19:11:01.145Z,25.30
2019-01-19T19:13:56.165Z,24.10
2019-01-19T19:17:05.760Z,22.55
2019-01-19T19:20:12.424Z,29.32
2019-01-19T19:23:11.953Z,31.20
2019-01-19T19:26:03.771Z,27.50
2019-01-19T19:29:03.384Z,25.27
2019-01-19T19:32:12.818Z,24.40
2019-01-19T19:35:31.137Z,23.43
2019-01-19T19:38:43.092Z,19.55
2019-01-19T19:41:48.523Z,17.35
2019-01-19T19:45:07.735Z,15.88
2019-01-19T19:48:36.248Z,14.53
2019-01-19T19:51:36.916Z,13.25
2019-01-19T19:54:06.295Z,12.93
2019-01-19T19:56:33.708Z,14.50
2019-01-19T19:59:02.609Z,14.10
2019-01-19T20:01:31.719Z,11.95
2019-01-19T20:04:01.336Z,12.73
2019-01-19T20:06:30.604Z,11.33
2019-01-19T20:08:59.900Z,12.40
2019-01-19T20:11:29.111Z,10.78
2019-01-19T20:13:58.453Z,11.70
2019-01-19T20:16:27.322Z,13.18
2019-01-19T20:18:56.595Z,11.45
2019-01-19T20:21:25.452Z,10.88
2019-01-19T20:23:54.325Z,11.03
2019-01-19T20:26:23.288Z,9.83
2019-01-19T20:28:52.201Z,10.43
2019-01-19T20:31:21.348Z,8.93
2019-01-19T20:33:50.339Z,10.10
2019-01-19T20:36:19.492Z,11.07
2019-01-19T20:38:48.368Z,11.57
2019-01-19T20:41:17.233Z,14.33
2019-01-19T20:43:46.792Z,19.87
2019-01-19T20:46:16.125Z,15.55
2019-01-19T20:48:45.733Z,14.03
2019-01-19T20:51:14.673Z,13.78
2019-01-19T20:53:43.822Z,15.45
2019-01-19T20:56:12.701Z,14.03
2019-01-19T20:58:41.567Z,13.55
2019-01-19T21:01:10.512Z,12.53
2019-01-19T21:03:39.303Z,12.23
2019-01-19T21:06:08.584Z,14.58
2019-01-19T21:08:37.471Z,17.40
2019-01-19T21:11:06.536Z,15.63
2019-01-19T21:13:35.728Z,16.73
2019-01-19T21:16:05.168Z,22.45
2019-01-19T21:18:34.313Z,21.93
2019-01-19T21:21:03.626Z,18.70
2019-01-19T21:23:32.411Z,20.27
2019-01-19T21:26:01.383Z,14.83
2019-01-19T21:28:30.299Z,16.32
2019-01-19T21:30:59.828Z,17.23
2019-01-19T21:33:28.597Z,15.15
2019-01-19T21:35:57.580Z,19.15
2019-01-19T21:38:26.501Z,12.63
2019-01-19T21:40:55.395Z,15.53
2019-01-19T21:43:24.480Z,13.10
2019-01-19T21:45:53.707Z,11.65
2019-01-19T21:48:22.851Z,12.17
2019-01-19T21:50:52.356Z,13.05
2019-01-19T21:53:21.212Z,14.00
2019-01-19T21:55:50.025Z,15.23
2019-01-19T21:58:19.036Z,15.68
2019-01-19T22:00:47.861Z,15.72
2019-01-19T22:03:16.780Z,14.83
2019-01-19T22:05:49.624Z,13.70
2019-01-19T22:08:16.497Z,12.88
2019-01-19T22:10:46.429Z,12.68
2019-01-19T22:13:15.519Z,11.90
2019-01-19T22:15:44.660Z,13.30
2019-01-19T22:18:14.291Z,11.75
2019-01-19T22:20:43.260Z,10.85
2019-01-19T22:23:12.559Z,10.97
2019-01-19T22:25:41.452Z,12.65
2019-01-19T22:28:10.292Z,10.48
2019-01-19T22:30:39.416Z,11.10
2019-01-19T22:33:09.768Z,10.35
2019-01-19T22:35:38.960Z,10.97
2019-01-19T22:38:08.393Z,10.50
2019-01-19T22:40:37.571Z,10.70
2019-01-19T22:43:09.244Z,10.68
2019-01-19T22:45:38.424Z,11.97
2019-01-19T22:48:07.755Z,10.82
2019-01-19T22:50:37.030Z,11.80
2019-01-19T22:53:06.073Z,12.65
2019-01-19T22:55:35.035Z,12.20
2019-01-19T22:58:04.004Z,11.70
2019-01-19T23:01:01.649Z,12.55
2019-01-19T23:03:32.856Z,12.58
2019-01-19T23:06:20.855Z,12.90
2019-01-19T23:08:49.669Z,12.00
2019-01-19T23:11:18.616Z,13.05
2019-01-19T23:13:47.839Z,13.73
2019-01-19T23:16:16.892Z,14.43
2019-01-19T23:19:04.943Z,15.73
2019-01-19T23:21:33.904Z,13.53
2019-01-19T23:24:02.872Z,13.30
2019-01-19T23:26:32.679Z,13.47
2019-01-19T23:29:01.618Z,13.22
2019-01-19T23:31:30.723Z,13.30
2019-01-19T23:33:59.596Z,15.25
2019-01-19T23:36:28.524Z,16.65
2019-01-19T23:38:57.704Z,15.03
2019-01-19T23:41:27.616Z,14.35
2019-01-19T23:43:57.653Z,14.05
2019-01-19T23:46:26.456Z,16.35
2019-01-19T23:48:55.314Z,16.35
2019-01-19T23:51:24.592Z,16.15
2019-01-19T23:53:53.396Z,14.58
2019-01-19T23:56:22.157Z,15.78
2019-01-19T23:58:51.035Z,15.70
